Time;durP1;ratioP1;P1;durP2;ratioP2;P2;SDS_P1;SDS_P2;PMS_P1;PMS_P2;Temp;Humidity;BMP_temperature;BMP_pressure;BME280_temperature;BME280_humidity;BME280_pressure;Samples;Min_cycle;Max_cycle;Signal;HPM_P1;HPM_P2
2023/06/24 00:01:25;;;;;;;;;;;25.10;72.90;;;;;;5014849;28;88035;-45
2023/06/24 00:03:52;;;;;;;;;;;25.10;72.80;;;;;;5011694;28;87685;-45
2023/06/24 00:06:22;;;;;;;;;;;25.00;72.70;;;;;;5012250;28;86570;-47
2023/06/24 00:08:48;;;;;;;;;;;25.00;72.80;;;;;;5014554;28;87783;-46
2023/06/24 00:11:14;;;;;;;;;;;25.00;72.80;;;;;;5011246;28;88005;-43
2023/06/24 00:13:40;;;;;;;;;;;25.00;72.80;;;;;;5013419;28;88179;-44
2023/06/24 00:16:08;;;;;;;;;;;25.00;72.80;;;;;;5011869;28;88268;-44
2023/06/24 00:18:35;;;;;;;;;;;25.00;73.50;;;;;;5016546;28;87842;-45
2023/06/24 00:21:04;;;;;;;;;;;25.00;72.80;;;;;;5010649;28;88808;-44
2023/06/24 00:23:35;;;;;;;;;;;25.00;72.80;;;;;;5010936;28;88100;-46
2023/06/24 00:26:01;;;;;;;;;;;25.00;72.90;;;;;;5008004;28;87141;-45
2023/06/24 00:28:27;;;;;;;;;;;25.00;72.80;;;;;;5010491;28;87327;-43
2023/06/24 00:30:53;;;;;;;;;;;24.90;72.80;;;;;;5011464;28;87321;-45
2023/06/24 00:33:20;;;;;;;;;;;24.90;72.90;;;;;;5014522;28;87237;-44
2023/06/24 00:35:46;;;;;;;;;;;24.90;73.00;;;;;;5010541;28;88942;-45
2023/06/24 00:38:11;;;;;;;;;;;24.90;72.80;;;;;;5013170;28;88999;-46
2023/06/24 00:40:37;;;;;;;;;;;24.90;72.80;;;;;;5013797;28;87234;-47
2023/06/24 00:43:03;;;;;;;;;;;24.90;72.90;;;;;;5013230;28;88135;-43
2023/06/24 00:45:32;;;;;;;;;;;24.80;72.80;;;;;;5011940;28;87189;-43
2023/06/24 00:47:58;;;;;;;;;;;24.90;72.90;;;;;;5013817;28;87300;-43
2023/06/24 00:50:23;;;;;;;;;;;24.80;72.80;;;;;;5011023;28;88041;-43
2023/06/24 00:52:49;;;;;;;;;;;24.80;72.80;;;;;;5010127;28;87184;-44
2023/06/24 00:55:16;;;;;;;;;;;24.80;72.80;;;;;;5012330;28;91080;-45
2023/06/24 00:57:45;;;;;;;;;;;24.80;72.90;;;;;;5009853;28;89485;-44
2023/06/24 01:00:14;;;;;;;;;;;24.80;72.80;;;;;;5010903;28;87396;-43
2023/06/24 01:02:42;;;;;;;;;;;24.80;72.80;;;;;;5012861;28;89102;-43
2023/06/24 01:05:11;;;;;;;;;;;24.80;72.80;;;;;;5013529;28;87381;-43
2023/06/24 01:07:40;;;;;;;;;;;24.70;72.80;;;;;;5009134;28;87419;-45
2023/06/24 01:10:06;;;;;;;;;;;24.70;72.80;;;;;;5009777;28;89444;-43
2023/06/24 01:12:35;;;;;;;;;;;24.80;72.80;;;;;;5013960;28;87174;-43
2023/06/24 01:15:02;;;;;;;;;;;24.70;72.90;;;;;;5007996;28;87030;-46
2023/06/24 01:17:37;;;;;;;;;;;24.70;72.90;;;;;;5005851;28;88031;-45
2023/06/24 01:20:07;;;;;;;;;;;24.70;72.90;;;;;;5008486;28;86441;-44
2023/06/24 01:22:51;;;;;;;;;;;24.70;72.90;;;;;;5012090;28;88434;-44
2023/06/24 01:25:33;;;;;;;;;;;24.70;72.90;;;;;;5016366;28;87954;-44
2023/06/24 01:28:16;;;;;;;;;;;24.60;72.80;;;;;;5008278;28;88279;-46
2023/06/24 01:31:00;;;;;;;;;;;24.60;72.80;;;;;;5005888;28;87885;-45
2023/06/24 01:33:50;;;;;;;;;;;24.60;72.80;;;;;;5010632;28;87062;-45
2023/06/24 01:36:17;;;;;;;;;;;24.60;72.80;;;;;;5007976;28;89205;-43
2023/06/24 01:38:45;;;;;;;;;;;24.60;72.80;;;;;;5011900;28;88024;-45
2023/06/24 01:41:13;;;;;;;;;;;24.60;72.80;;;;;;5010885;28;87183;-45
2023/06/24 01:43:39;;;;;;;;;;;24.60;72.90;;;;;;5010565;28;87704;-44
2023/06/24 01:46:06;;;;;;;;;;;24.60;72.90;;;;;;5016150;28;87375;-46
2023/06/24 01:48:42;;;;;;;;;;;24.60;72.90;;;;;;5011672;28;88074;-45
2023/06/24 01:51:09;;;;;;;;;;;24.50;72.80;;;;;;5011200;28;88063;-44
2023/06/24 01:53:38;;;;;;;;;;;24.50;72.90;;;;;;5010982;28;88049;-43
2023/06/24 01:56:05;;;;;;;;;;;24.50;72.80;;;;;;5011405;28;88347;-46
2023/06/24 01:58:31;;;;;;;;;;;24.40;72.90;;;;;;5011098;28;88028;-45
2023/06/24 02:00:57;;;;;;;;;;;24.50;72.80;;;;;;5012445;28;87201;-45
2023/06/24 02:03:23;;;;;;;;;;;24.50;72.80;;;;;;5011591;28;87506;-44
2023/06/24 02:05:50;;;;;;;;;;;24.50;72.80;;;;;;5012293;28;88194;-44
2023/06/24 02:08:16;;;;;;;;;;;24.40;72.70;;;;;;5013440;28;87344;-43
2023/06/24 02:10:42;;;;;;;;;;;24.40;73.40;;;;;;5012582;28;87108;-46
2023/06/24 02:13:09;;;;;;;;;;;24.40;72.70;;;;;;5012035;28;87097;-45
2023/06/24 02:15:35;;;;;;;;;;;24.50;72.80;;;;;;5010132;28;87898;-45
2023/06/24 02:18:02;;;;;;;;;;;24.40;72.90;;;;;;5010957;28;88961;-46
2023/06/24 02:20:28;;;;;;;;;;;24.40;72.80;;;;;;5011841;28;87207;-44
2023/06/24 02:22:54;;;;;;;;;;;24.40;72.80;;;;;;5011773;28;89321;-43
2023/06/24 02:25:20;;;;;;;;;;;24.40;72.90;;;;;;5012071;28;87985;-44
2023/06/24 02:27:45;;;;;;;;;;;24.30;72.90;;;;;;5011320;28;87151;-44
2023/06/24 02:30:11;;;;;;;;;;;24.30;72.90;;;;;;5012203;28;87421;-43
2023/06/24 02:32:38;;;;;;;;;;;24.30;72.90;;;;;;5010904;28;88149;-44
2023/06/24 02:35:04;;;;;;;;;;;24.30;72.80;;;;;;5013320;28;87295;-45
2023/06/24 02:37:30;;;;;;;;;;;24.30;72.80;;;;;;5008825;28;89220;-43
2023/06/24 02:39:56;;;;;;;;;;;24.30;72.90;;;;;;5010114;28;87343;-44
2023/06/24 02:42:21;;;;;;;;;;;24.20;72.90;;;;;;5009084;28;88192;-45
2023/06/24 02:44:47;;;;;;;;;;;24.20;72.90;;;;;;5012450;28;88123;-44
2023/06/24 02:47:14;;;;;;;;;;;24.20;72.90;;;;;;5009923;28;87030;-45
2023/06/24 02:49:39;;;;;;;;;;;24.20;73.00;;;;;;5013412;28;87519;-43
2023/06/24 02:52:05;;;;;;;;;;;24.30;72.90;;;;;;5007190;28;88594;-43
2023/06/24 02:54:31;;;;;;;;;;;24.20;72.80;;;;;;5012022;28;88717;-43
2023/06/24 02:56:58;;;;;;;;;;;24.20;72.80;;;;;;5009473;28;89373;-44
2023/06/24 02:59:24;;;;;;;;;;;24.10;72.90;;;;;;5011900;28;86478;-43
2023/06/24 03:01:50;;;;;;;;;;;24.20;73.00;;;;;;5012699;28;87077;-44
2023/06/24 03:04:17;;;;;;;;;;;24.10;72.90;;;;;;5011706;28;87596;-43
2023/06/24 03:06:43;;;;;;;;;;;24.10;72.90;;;;;;5007296;28;88108;-44
2023/06/24 03:09:09;;;;;;;;;;;24.10;72.80;;;;;;5007366;28;87539;-44
2023/06/24 03:11:44;;;;;;;;;;;24.10;72.90;;;;;;5008985;28;89665;-44
2023/06/24 03:14:10;;;;;;;;;;;24.10;72.80;;;;;;5005386;28;88107;-45
2023/06/24 03:16:36;;;;;;;;;;;24.10;72.90;;;;;;5005029;28;88486;-44
2023/06/24 03:19:02;;;;;;;;;;;24.10;72.90;;;;;;5004356;28;87201;-43
2023/06/24 03:21:28;;;;;;;;;;;24.10;73.00;;;;;;5005857;28;88809;-44
2023/06/24 03:23:54;;;;;;;;;;;24.00;72.90;;;;;;5012795;28;87261;-44
2023/06/24 03:26:19;;;;;;;;;;;24.00;73.10;;;;;;5016054;28;87201;-45
2023/06/24 03:28:45;;;;;;;;;;;24.00;72.90;;;;;;5013195;28;87951;-43
2023/06/24 03:31:10;;;;;;;;;;;24.00;72.90;;;;;;5010455;28;90642;-43
2023/06/24 03:33:36;;;;;;;;;;;24.00;73.00;;;;;;5005086;28;87152;-44
2023/06/24 03:36:01;;;;;;;;;;;24.00;73.00;;;;;;5017360;28;89261;-44
2023/06/24 03:38:27;;;;;;;;;;;24.00;72.90;;;;;;5004453;28;88325;-44
2023/06/24 03:40:53;;;;;;;;;;;23.90;72.90;;;;;;5007170;28;88856;-46
2023/06/24 03:43:19;;;;;;;;;;;23.90;73.10;;;;;;5010649;28;88053;-45
2023/06/24 03:45:44;;;;;;;;;;;23.90;73.00;;;;;;5014192;28;87151;-47
2023/06/24 03:48:10;;;;;;;;;;;23.80;73.00;;;;;;5015244;28;87480;-44
2023/06/24 03:50:35;;;;;;;;;;;23.90;73.10;;;;;;5007185;28;88199;-45
2023/06/24 03:53:02;;;;;;;;;;;23.90;73.00;;;;;;5005708;28;88692;-47
2023/06/24 03:55:27;;;;;;;;;;;23.90;72.90;;;;;;5015341;28;88070;-43
2023/06/24 03:57:53;;;;;;;;;;;23.90;72.90;;;;;;5012417;28;87969;-45
2023/06/24 04:00:20;;;;;;;;;;;23.90;72.90;;;;;;5003579;28;87744;-43
2023/06/24 04:02:46;;;;;;;;;;;23.80;72.90;;;;;;5013296;28;88082;-48
2023/06/24 04:05:12;;;;;;;;;;;23.80;72.90;;;;;;5012471;28;87061;-42
2023/06/24 04:07:38;;;;;;;;;;;23.80;72.90;;;;;;5002632;28;87493;-44
2023/06/24 04:10:08;;;;;;;;;;;23.80;72.90;;;;;;5005480;28;88009;-44
2023/06/24 04:12:37;;;;;;;;;;;23.80;72.90;;;;;;5009627;28;86415;-46
2023/06/24 04:15:03;;;;;;;;;;;23.80;72.80;;;;;;5014284;28;87066;-45
2023/06/24 04:17:29;;;;;;;;;;;23.80;72.90;;;;;;5008122;28;87903;-48
2023/06/24 04:19:54;;;;;;;;;;;23.80;72.90;;;;;;4999451;28;87988;-47
2023/06/24 04:22:20;;;;;;;;;;;23.80;73.00;;;;;;5014308;28;88164;-47
2023/06/24 04:24:45;;;;;;;;;;;23.70;73.00;;;;;;5009766;28;88029;-50
2023/06/24 04:27:11;;;;;;;;;;;23.70;73.00;;;;;;5001231;28;87776;-43
2023/06/24 04:29:36;;;;;;;;;;;23.70;73.10;;;;;;5009810;28;89376;-47
2023/06/24 04:32:02;;;;;;;;;;;23.70;73.10;;;;;;5012097;28;87476;-45
2023/06/24 04:34:28;;;;;;;;;;;23.70;73.10;;;;;;5009102;28;87386;-44
2023/06/24 04:36:53;;;;;;;;;;;23.70;73.10;;;;;;5008396;28;86536;-46
2023/06/24 04:39:19;;;;;;;;;;;23.70;72.90;;;;;;5006129;28;88850;-46
2023/06/24 04:41:44;;;;;;;;;;;23.70;73.10;;;;;;5013677;28;88151;-48
2023/06/24 04:44:10;;;;;;;;;;;23.70;73.00;;;;;;5007853;28;88090;-46
2023/06/24 04:46:37;;;;;;;;;;;23.60;73.00;;;;;;5007592;28;88293;-47
2023/06/24 04:49:02;;;;;;;;;;;23.70;73.10;;;;;;5009914;28;87100;-45
2023/06/24 04:51:28;;;;;;;;;;;23.70;73.10;;;;;;5013521;28;87110;-45
2023/06/24 04:53:55;;;;;;;;;;;23.60;73.10;;;;;;5009613;28;87453;-46
2023/06/24 04:56:20;;;;;;;;;;;23.70;73.10;;;;;;5002117;28;89453;-44
2023/06/24 04:58:46;;;;;;;;;;;23.70;73.00;;;;;;5007145;28;87179;-43
2023/06/24 05:01:11;;;;;;;;;;;23.70;73.00;;;;;;5016244;28;86661;-46
2023/06/24 05:03:37;;;;;;;;;;;23.70;72.90;;;;;;5007360;28;87046;-43
2023/06/24 05:06:02;;;;;;;;;;;23.70;72.90;;;;;;5007928;28;87629;-44
2023/06/24 05:08:28;;;;;;;;;;;23.70;72.80;;;;;;5008623;28;89032;-42
2023/06/24 05:10:53;;;;;;;;;;;23.70;72.80;;;;;;5011686;28;87047;-43
2023/06/24 05:13:19;;;;;;;;;;;23.70;72.80;;;;;;5006974;28;88329;-43
2023/06/24 05:15:44;;;;;;;;;;;23.70;72.90;;;;;;5005249;28;88042;-45
2023/06/24 05:18:10;;;;;;;;;;;23.70;72.90;;;;;;5010663;28;87149;-43
2023/06/24 05:20:36;;;;;;;;;;;23.70;72.90;;;;;;5011323;28;87457;-43
2023/06/24 05:23:01;;;;;;;;;;;23.70;72.90;;;;;;5003323;28;89580;-43
2023/06/24 05:25:26;;;;;;;;;;;23.70;73.00;;;;;;5000310;28;86599;-45
2023/06/24 05:27:52;;;;;;;;;;;23.70;73.00;;;;;;5013546;28;87969;-43
2023/06/24 05:30:18;;;;;;;;;;;23.70;73.00;;;;;;5011650;28;87078;-43
2023/06/24 05:32:43;;;;;;;;;;;23.70;73.10;;;;;;4999397;28;89184;-44
2023/06/24 05:35:09;;;;;;;;;;;23.70;73.10;;;;;;5008201;28;88447;-45
2023/06/24 05:37:34;;;;;;;;;;;23.70;73.10;;;;;;5012860;28;87122;-43
2023/06/24 05:40:01;;;;;;;;;;;23.70;73.10;;;;;;5004547;28;89015;-44
2023/06/24 05:42:26;;;;;;;;;;;23.70;73.10;;;;;;4999962;28;89297;-44
2023/06/24 05:44:52;;;;;;;;;;;23.70;73.10;;;;;;5009566;28;87301;-43
2023/06/24 05:47:17;;;;;;;;;;;23.70;73.10;;;;;;5012566;28;88065;-43
2023/06/24 05:49:43;;;;;;;;;;;23.70;73.20;;;;;;5008782;28;86373;-43
2023/06/24 05:52:08;;;;;;;;;;;23.70;73.30;;;;;;5007318;28;87094;-45
2023/06/24 05:54:34;;;;;;;;;;;23.70;73.20;;;;;;5006644;28;89622;-43
2023/06/24 05:56:59;;;;;;;;;;;23.70;73.30;;;;;;5013236;28;87949;-43
2023/06/24 05:59:25;;;;;;;;;;;23.70;73.30;;;;;;5007762;28;89934;-43
2023/06/24 06:01:50;;;;;;;;;;;23.70;73.30;;;;;;4998205;28;88224;-43
2023/06/24 06:04:16;;;;;;;;;;;23.70;73.40;;;;;;5007934;28;87632;-43
2023/06/24 06:06:41;;;;;;;;;;;23.70;73.40;;;;;;5013711;28;88186;-44
2023/06/24 06:09:07;;;;;;;;;;;23.80;73.50;;;;;;5006858;28;87855;-43
2023/06/24 06:11:32;;;;;;;;;;;23.70;73.50;;;;;;5011337;28;89142;-43
2023/06/24 06:13:58;;;;;;;;;;;23.70;73.50;;;;;;4999908;28;88730;-43
2023/06/24 06:16:23;;;;;;;;;;;23.80;73.60;;;;;;5013062;28;87168;-43
2023/06/24 06:18:49;;;;;;;;;;;23.70;73.50;;;;;;5004194;28;88642;-47
2023/06/24 06:21:14;;;;;;;;;;;23.70;73.60;;;;;;5000770;28;88733;-43
2023/06/24 06:23:40;;;;;;;;;;;23.70;73.70;;;;;;5009480;28;87245;-43
2023/06/24 06:26:05;;;;;;;;;;;23.70;73.70;;;;;;5014432;28;88230;-45
2023/06/24 06:28:31;;;;;;;;;;;23.70;73.70;;;;;;5004996;28;87809;-43
2023/06/24 06:30:57;;;;;;;;;;;23.70;73.80;;;;;;5006322;28;88057;-43
2023/06/24 06:33:22;;;;;;;;;;;23.70;73.70;;;;;;5009550;28;88014;-43
2023/06/24 06:35:48;;;;;;;;;;;23.70;73.80;;;;;;5011240;28;87146;-43
2023/06/24 06:38:14;;;;;;;;;;;23.70;73.90;;;;;;5005717;28;87514;-43
2023/06/24 06:40:40;;;;;;;;;;;23.70;73.90;;;;;;5003275;28;89533;-44
2023/06/24 06:43:05;;;;;;;;;;;23.70;73.90;;;;;;5010905;28;87655;-43
2023/06/24 06:45:31;;;;;;;;;;;23.70;73.90;;;;;;5009651;28;87977;-43
2023/06/24 06:47:56;;;;;;;;;;;23.70;74.00;;;;;;5009572;28;88317;-44
2023/06/24 06:50:22;;;;;;;;;;;23.70;74.00;;;;;;5001854;28;87583;-44
2023/06/24 06:52:47;;;;;;;;;;;23.70;74.00;;;;;;5009552;28;89007;-43
2023/06/24 06:55:13;;;;;;;;;;;23.80;74.00;;;;;;5012964;28;89021;-43
2023/06/24 06:57:38;;;;;;;;;;;23.80;74.00;;;;;;5009662;28;87190;-43
2023/06/24 07:00:04;;;;;;;;;;;23.80;74.10;;;;;;5003223;28;88628;-43
2023/06/24 07:02:30;;;;;;;;;;;23.80;74.00;;;;;;5008312;28;86391;-43
2023/06/24 07:04:55;;;;;;;;;;;23.80;74.10;;;;;;5014294;28;87030;-43
2023/06/24 07:07:21;;;;;;;;;;;23.70;74.10;;;;;;5014373;28;87985;-45
2023/06/24 07:09:47;;;;;;;;;;;23.70;74.10;;;;;;5004719;28;88169;-43
2023/06/24 07:12:13;;;;;;;;;;;23.70;74.10;;;;;;5012519;28;89275;-43
2023/06/24 07:14:39;;;;;;;;;;;23.80;74.20;;;;;;5014777;28;87029;-43
2023/06/24 07:17:04;;;;;;;;;;;23.80;74.20;;;;;;5001958;28;87530;-43
2023/06/24 07:19:30;;;;;;;;;;;23.80;74.20;;;;;;5002041;28;88324;-44
2023/06/24 07:21:55;;;;;;;;;;;23.70;74.10;;;;;;5015168;28;87112;-43
2023/06/24 07:24:21;;;;;;;;;;;23.80;74.20;;;;;;5011428;28;88860;-44
2023/06/24 07:26:46;;;;;;;;;;;23.80;74.20;;;;;;5002831;28;87935;-43
2023/06/24 07:29:12;;;;;;;;;;;23.80;74.30;;;;;;5013328;28;89207;-43
2023/06/24 07:31:37;;;;;;;;;;;23.80;74.40;;;;;;5015531;28;89060;-44
2023/06/24 07:34:03;;;;;;;;;;;23.80;74.40;;;;;;5015481;28;87969;-43
2023/06/24 07:36:28;;;;;;;;;;;23.80;74.30;;;;;;5012614;28;89006;-43
2023/06/24 07:38:54;;;;;;;;;;;23.80;74.30;;;;;;5015746;28;88057;-43
2023/06/24 07:41:19;;;;;;;;;;;23.80;74.20;;;;;;5012447;28;87373;-45
2023/06/24 07:43:45;;;;;;;;;;;23.80;74.30;;;;;;5010558;28;88183;-43
2023/06/24 07:46:10;;;;;;;;;;;23.80;74.30;;;;;;5015644;28;87581;-43
2023/06/24 07:48:36;;;;;;;;;;;23.80;74.30;;;;;;5013004;28;87137;-42
2023/06/24 07:51:02;;;;;;;;;;;23.80;74.30;;;;;;5018480;28;87417;-43
2023/06/24 07:53:27;;;;;;;;;;;23.80;74.30;;;;;;5013794;28;87476;-43
2023/06/24 07:55:52;;;;;;;;;;;23.90;74.30;;;;;;5012946;28;87197;-44
2023/06/24 07:58:19;;;;;;;;;;;23.90;74.90;;;;;;5010753;28;89050;-43
2023/06/24 08:00:44;;;;;;;;;;;23.90;74.20;;;;;;5013712;28;87167;-43
2023/06/24 08:03:10;;;;;;;;;;;23.90;74.30;;;;;;5014140;28;87272;-43
2023/06/24 08:05:36;;;;;;;;;;;23.80;74.30;;;;;;5013474;28;87124;-44
2023/06/24 08:08:01;;;;;;;;;;;23.90;74.40;;;;;;5013294;28;87106;-42
2023/06/24 08:10:26;;;;;;;;;;;23.90;74.50;;;;;;5013384;28;87459;-43
2023/06/24 08:12:52;;;;;;;;;;;23.90;74.40;;;;;;5017334;28;88035;-43
2023/06/24 08:15:17;;;;;;;;;;;23.90;74.40;;;;;;5012064;28;87503;-46
2023/06/24 08:17:43;;;;;;;;;;;23.90;74.40;;;;;;5012304;28;88099;-43
2023/06/24 08:20:09;;;;;;;;;;;23.90;74.40;;;;;;5015387;28;87088;-44
2023/06/24 08:22:34;;;;;;;;;;;23.90;74.50;;;;;;5011482;28;88935;-43
2023/06/24 08:25:00;;;;;;;;;;;23.90;74.50;;;;;;5014800;28;88040;-46
2023/06/24 08:27:25;;;;;;;;;;;23.90;74.50;;;;;;5012029;28;87210;-45
2023/06/24 08:29:51;;;;;;;;;;;23.90;74.50;;;;;;5014657;28;88116;-46
2023/06/24 08:32:16;;;;;;;;;;;23.90;74.50;;;;;;5011689;28;88804;-44
2023/06/24 08:34:42;;;;;;;;;;;24.00;74.50;;;;;;5017222;28;87425;-45
2023/06/24 08:37:07;;;;;;;;;;;24.00;74.50;;;;;;5012203;28;88245;-47
2023/06/24 08:39:33;;;;;;;;;;;24.00;74.50;;;;;;5012555;28;86357;-45
2023/06/24 08:41:59;;;;;;;;;;;24.00;74.50;;;;;;5013929;28;88288;-44
2023/06/24 08:44:24;;;;;;;;;;;24.00;74.50;;;;;;5012047;28;87141;-45
2023/06/24 08:46:50;;;;;;;;;;;24.00;74.50;;;;;;5013309;28;88666;-46
2023/06/24 08:49:21;;;;;;;;;;;24.00;74.40;;;;;;5013146;28;87295;-45
2023/06/24 08:51:48;;;;;;;;;;;24.00;74.50;;;;;;5012151;28;90204;-46
2023/06/24 08:54:14;;;;;;;;;;;24.10;74.50;;;;;;5012817;28;87210;-45
2023/06/24 08:56:40;;;;;;;;;;;24.10;74.50;;;;;;5013800;28;87512;-48
2023/06/24 08:59:06;;;;;;;;;;;24.10;74.50;;;;;;5012747;28;87103;-47
2023/06/24 09:01:32;;;;;;;;;;;24.10;74.50;;;;;;5012527;28;87450;-45
2023/06/24 09:03:57;;;;;;;;;;;24.10;74.90;;;;;;5012861;28;87359;-49
2023/06/24 09:06:23;;;;;;;;;;;24.10;74.70;;;;;;5013000;28;87126;-47
2023/06/24 09:08:57;;;;;;;;;;;24.10;74.80;;;;;;5012035;28;87475;-46
2023/06/24 09:11:27;;;;;;;;;;;24.10;74.90;;;;;;5008986;28;88189;-45
2023/06/24 09:13:56;;;;;;;;;;;24.10;74.90;;;;;;5012359;28;87073;-48
2023/06/24 09:16:22;;;;;;;;;;;24.10;74.70;;;;;;5013213;28;88894;-51
2023/06/24 09:18:49;;;;;;;;;;;24.20;74.90;;;;;;5013392;28;88071;-42
2023/06/24 09:21:21;;;;;;;;;;;24.20;74.90;;;;;;5013114;28;87566;-47
2023/06/24 09:23:46;;;;;;;;;;;24.20;75.10;;;;;;5010471;28;89769;-43
2023/06/24 09:26:12;;;;;;;;;;;24.20;75.10;;;;;;5010088;28;87167;-43
2023/06/24 09:28:37;;;;;;;;;;;24.20;75.00;;;;;;5014772;28;87357;-43
2023/06/24 09:31:06;;;;;;;;;;;24.30;75.10;;;;;;5009454;28;87261;-43
2023/06/24 09:33:32;;;;;;;;;;;24.30;75.00;;;;;;5011563;28;87230;-43
2023/06/24 09:35:57;;;;;;;;;;;24.30;75.00;;;;;;5013526;28;88050;-44
2023/06/24 09:38:36;;;;;;;;;;;24.30;75.00;;;;;;5011371;28;87281;-43
2023/06/24 09:41:03;;;;;;;;;;;24.30;74.90;;;;;;5009285;28;87171;-43
2023/06/24 09:43:28;;;;;;;;;;;24.30;75.00;;;;;;5010455;28;89805;-43
2023/06/24 09:45:55;;;;;;;;;;;24.30;74.80;;;;;;5013645;28;87619;-43
2023/06/24 09:48:20;;;;;;;;;;;24.40;74.90;;;;;;5010696;28;87071;-43
2023/06/24 09:50:46;;;;;;;;;;;24.40;74.80;;;;;;5006456;28;88229;-44
2023/06/24 09:53:12;;;;;;;;;;;24.40;74.70;;;;;;5014720;28;86445;-43
2023/06/24 09:55:43;;;;;;;;;;;24.40;74.60;;;;;;5011820;28;87142;-43
2023/06/24 09:58:10;;;;;;;;;;;24.40;74.70;;;;;;5006409;28;88025;-44
2023/06/24 10:00:36;;;;;;;;;;;24.40;74.80;;;;;;5008353;28;88298;-43
2023/06/24 10:03:02;;;;;;;;;;;24.50;74.80;;;;;;5013963;28;87363;-44
2023/06/24 10:05:28;;;;;;;;;;;24.40;74.70;;;;;;5010577;28;87174;-44
2023/06/24 10:07:53;;;;;;;;;;;24.50;74.80;;;;;;5013357;28;87955;-43
2023/06/24 10:10:19;;;;;;;;;;;24.50;74.60;;;;;;5009661;28;88771;-43
2023/06/24 10:12:44;;;;;;;;;;;24.50;74.70;;;;;;5013455;28;87458;-42
2023/06/24 10:15:10;;;;;;;;;;;24.50;74.60;;;;;;5009207;28;90567;-46
2023/06/24 10:17:36;;;;;;;;;;;24.60;74.60;;;;;;5011065;28;88603;-43
2023/06/24 10:20:06;;;;;;;;;;;24.50;74.80;;;;;;5012600;28;87124;-43
2023/06/24 10:22:31;;;;;;;;;;;24.60;74.60;;;;;;5013393;28;88734;-45
2023/06/24 10:24:59;;;;;;;;;;;24.60;74.60;;;;;;5012003;28;88120;-44
2023/06/24 10:27:27;;;;;;;;;;;24.60;74.60;;;;;;5010241;28;87821;-43
2023/06/24 10:29:53;;;;;;;;;;;24.60;74.50;;;;;;5011183;28;88512;-43
2023/06/24 10:32:19;;;;;;;;;;;24.60;74.60;;;;;;5009827;28;86950;-43
2023/06/24 10:34:53;;;;;;;;;;;24.60;74.60;;;;;;5012610;28;87770;-43
2023/06/24 10:37:39;;;;;;;;;;;24.70;74.50;;;;;;5009657;28;88198;-43
2023/06/24 10:40:05;;;;;;;;;;;24.70;74.50;;;;;;5009854;28;87221;-44
2023/06/24 10:42:37;;;;;;;;;;;24.70;74.50;;;;;;5011319;28;89227;-43
2023/06/24 10:45:08;;;;;;;;;;;24.70;74.40;;;;;;5014495;28;88978;-44
2023/06/24 10:47:34;;;;;;;;;;;24.70;74.50;;;;;;5005828;28;87680;-44
2023/06/24 10:50:00;;;;;;;;;;;24.80;74.50;;;;;;5011768;28;88944;-42
2023/06/24 10:52:25;;;;;;;;;;;24.80;74.50;;;;;;5009169;28;87425;-43
2023/06/24 10:54:52;;;;;;;;;;;24.80;74.40;;;;;;5012359;28;88640;-44
2023/06/24 10:57:24;;;;;;;;;;;24.80;74.30;;;;;;5008570;28;88034;-43
2023/06/24 10:59:50;;;;;;;;;;;24.80;74.20;;;;;;5010086;28;87117;-43
2023/06/24 11:02:19;;;;;;;;;;;24.90;74.40;;;;;;5009781;28;89001;-43
2023/06/24 11:04:49;;;;;;;;;;;24.90;74.40;;;;;;5008890;28;87949;-44
2023/06/24 11:07:16;;;;;;;;;;;24.90;74.30;;;;;;5009170;28;86465;-44
2023/06/24 11:09:44;;;;;;;;;;;24.90;74.30;;;;;;5004775;28;87551;-43
2023/06/24 11:12:10;;;;;;;;;;;24.90;74.20;;;;;;5004310;28;86955;-44
2023/06/24 11:14:36;;;;;;;;;;;25.00;74.20;;;;;;5005046;28;87965;-45
2023/06/24 11:17:03;;;;;;;;;;;25.00;74.20;;;;;;5008420;28;88183;-44
2023/06/24 11:19:30;;;;;;;;;;;25.00;74.20;;;;;;5012523;28;87310;-43
2023/06/24 11:21:59;;;;;;;;;;;25.00;74.20;;;;;;5007966;28;90262;-43
2023/06/24 11:24:24;;;;;;;;;;;25.00;74.10;;;;;;5004886;28;88330;-44
2023/06/24 11:26:51;;;;;;;;;;;25.00;74.10;;;;;;5011375;28;86995;-44
2023/06/24 11:29:16;;;;;;;;;;;25.00;74.10;;;;;;5015473;28;87385;-44
2023/06/24 11:31:41;;;;;;;;;;;25.10;74.10;;;;;;5008617;28;86358;-45
2023/06/24 11:34:08;;;;;;;;;;;25.10;74.10;;;;;;5009582;28;87397;-44
2023/06/24 11:36:34;;;;;;;;;;;25.10;74.00;;;;;;5011714;28;87285;-43
2023/06/24 11:39:00;;;;;;;;;;;25.10;74.00;;;;;;5009242;28;88412;-43
2023/06/24 11:41:27;;;;;;;;;;;25.20;74.00;;;;;;5012822;28;88550;-44
2023/06/24 11:43:53;;;;;;;;;;;25.20;73.90;;;;;;5013082;28;89475;-43
2023/06/24 11:46:28;;;;;;;;;;;25.20;74.00;;;;;;5010090;28;87110;-43
2023/06/24 11:49:03;;;;;;;;;;;25.20;73.90;;;;;;5015674;28;87566;-44
2023/06/24 11:51:28;;;;;;;;;;;25.20;73.90;;;;;;5012718;28;88228;-44
2023/06/24 11:53:58;;;;;;;;;;;25.20;73.90;;;;;;5015620;28;87344;-43
2023/06/24 11:56:33;;;;;;;;;;;25.30;73.90;;;;;;5012098;28;87527;-43
2023/06/24 11:58:59;;;;;;;;;;;25.30;74.00;;;;;;5014236;28;87064;-44
2023/06/24 12:01:30;;;;;;;;;;;25.30;73.90;;;;;;5010933;28;87212;-43
2023/06/24 12:03:55;;;;;;;;;;;25.30;73.90;;;;;;5012963;28;89060;-44
2023/06/24 12:06:20;;;;;;;;;;;25.30;73.90;;;;;;5013821;28;86999;-43
2023/06/24 12:08:46;;;;;;;;;;;25.30;73.80;;;;;;5013854;28;87362;-43
2023/06/24 12:11:11;;;;;;;;;;;25.40;73.90;;;;;;5016628;28;88227;-43
2023/06/24 12:13:37;;;;;;;;;;;25.40;73.90;;;;;;5013014;28;87454;-43
2023/06/24 12:16:02;;;;;;;;;;;25.40;73.90;;;;;;5014020;28;89709;-43
2023/06/24 12:18:28;;;;;;;;;;;25.40;73.80;;;;;;5011059;28;87119;-44
2023/06/24 12:20:53;;;;;;;;;;;25.40;73.80;;;;;;5013007;28;87547;-45
2023/06/24 12:23:19;;;;;;;;;;;25.40;73.80;;;;;;5014892;28;88296;-43
2023/06/24 12:25:44;;;;;;;;;;;25.40;73.70;;;;;;5011536;28;87296;-45
2023/06/24 12:28:10;;;;;;;;;;;25.50;73.80;;;;;;5014540;28;88556;-44
2023/06/24 12:30:35;;;;;;;;;;;25.50;73.70;;;;;;5011533;28;88292;-45
2023/06/24 12:33:01;;;;;;;;;;;25.50;73.60;;;;;;5013631;28;87055;-44
2023/06/24 12:35:26;;;;;;;;;;;25.50;73.70;;;;;;5013816;28;88823;-43
2023/06/24 12:37:52;;;;;;;;;;;25.50;73.70;;;;;;5010497;28;87183;-43
2023/06/24 12:40:18;;;;;;;;;;;25.50;73.60;;;;;;5012840;28;87863;-44
2023/06/24 12:42:45;;;;;;;;;;;25.50;73.60;;;;;;5009571;28;89281;-44
2023/06/24 12:45:10;;;;;;;;;;;25.50;73.70;;;;;;5013084;28;86727;-44
2023/06/24 12:47:36;;;;;;;;;;;25.50;73.60;;;;;;5006742;28;87075;-48
2023/06/24 12:50:06;;;;;;;;;;;25.50;74.10;;;;;;5011135;28;88839;-46
2023/06/24 12:52:31;;;;;;;;;;;25.50;73.60;;;;;;5011981;28;88138;-44
2023/06/24 12:54:57;;;;;;;;;;;25.60;73.60;;;;;;5014128;28;88895;-45
2023/06/24 12:57:22;;;;;;;;;;;25.50;73.40;;;;;;5011019;28;87661;-44
2023/06/24 12:59:48;;;;;;;;;;;25.60;73.40;;;;;;5012490;28;87711;-44
2023/06/24 13:02:13;;;;;;;;;;;25.50;73.30;;;;;;5009484;28;88102;-44
2023/06/24 13:04:39;;;;;;;;;;;25.60;73.30;;;;;;5012474;28;87117;-46
2023/06/24 13:07:05;;;;;;;;;;;25.60;73.30;;;;;;5012961;28;87923;-45
2023/06/24 13:09:30;;;;;;;;;;;25.60;73.30;;;;;;5012230;28;87400;-47
2023/06/24 13:11:56;;;;;;;;;;;25.60;73.20;;;;;;5011875;28;87121;-45
2023/06/24 13:14:21;;;;;;;;;;;25.60;73.20;;;;;;5011898;28;89373;-46
2023/06/24 13:16:47;;;;;;;;;;;25.60;73.20;;;;;;5012888;28;89002;-44
2023/06/24 13:19:12;;;;;;;;;;;25.60;73.20;;;;;;5014915;28;88619;-44
2023/06/24 13:21:38;;;;;;;;;;;25.60;73.20;;;;;;5010306;28;88038;-49
2023/06/24 13:24:03;;;;;;;;;;;25.60;73.10;;;;;;5014182;28;87146;-44
2023/06/24 13:26:29;;;;;;;;;;;25.60;73.20;;;;;;5005786;28;87361;-45
2023/06/24 13:28:54;;;;;;;;;;;25.60;73.30;;;;;;5011123;28;88062;-47
2023/06/24 13:31:20;;;;;;;;;;;25.60;73.30;;;;;;5013082;28;87229;-43
2023/06/24 13:33:45;;;;;;;;;;;25.60;73.30;;;;;;5009712;28;87484;-47
2023/06/24 13:36:26;;;;;;;;;;;25.60;73.20;;;;;;5012748;28;88037;-48
2023/06/24 13:38:52;;;;;;;;;;;25.70;73.30;;;;;;5010632;28;87002;-46
2023/06/24 13:41:17;;;;;;;;;;;25.70;73.30;;;;;;5011243;28;88914;-45
2023/06/24 13:43:43;;;;;;;;;;;25.70;73.40;;;;;;5010241;28;87595;-46
2023/06/24 13:46:08;;;;;;;;;;;25.70;73.30;;;;;;5009644;28;87656;-46
2023/06/24 13:48:34;;;;;;;;;;;25.70;73.30;;;;;;5013965;28;88014;-49
2023/06/24 13:50:59;;;;;;;;;;;25.70;73.30;;;;;;5005209;28;87109;-45
2023/06/24 13:53:25;;;;;;;;;;;25.70;73.30;;;;;;5013515;28;87425;-49
2023/06/24 13:55:51;;;;;;;;;;;25.70;73.30;;;;;;5009668;28;88771;-43
2023/06/24 13:58:16;;;;;;;;;;;25.70;73.30;;;;;;5010003;28;86739;-46
2023/06/24 14:00:41;;;;;;;;;;;25.70;73.20;;;;;;5015494;28;87479;-43
2023/06/24 14:03:07;;;;;;;;;;;25.70;73.70;;;;;;5009414;28;87627;-43
2023/06/24 14:05:33;;;;;;;;;;;25.70;73.20;;;;;;5010255;28;88111;-43
2023/06/24 14:07:58;;;;;;;;;;;25.70;73.20;;;;;;5010925;28;87894;-47
2023/06/24 14:10:24;;;;;;;;;;;25.70;73.00;;;;;;5011816;28;87117;-43
2023/06/24 14:12:49;;;;;;;;;;;25.70;72.90;;;;;;5008224;28;87149;-43